Time;durP1;ratioP1;P1;durP2;ratioP2;P2;SDS_P1;SDS_P2;PMS_P1;PMS_P2;Temp;Humidity;BMP_temperature;BMP_pressure;BME280_temperature;BME280_humidity;BME280_pressure;Samples;Min_cycle;Max_cycle;Signal;HPM_P1;HPM_P2
2023/01/21 00:01:52;;;;;;;84.35;31.33;;;-0.90;99.90;;;;;;5068075;28;20087;-37
2023/01/21 00:04:18;;;;;;;80.47;31.75;;;-0.90;99.90;;;;;;5068299;28;20478;-36
2023/01/21 00:06:44;;;;;;;83.32;31.02;;;-0.80;99.90;;;;;;5067942;28;20496;-36
2023/01/21 00:09:10;;;;;;;86.22;35.33;;;-1.20;99.90;;;;;;5067977;28;20045;-36
2023/01/21 00:11:36;;;;;;;96.70;34.53;;;-0.90;99.90;;;;;;5067895;28;20036;-36
2023/01/21 00:14:01;;;;;;;83.07;30.10;;;-0.70;99.90;;;;;;5068072;28;20056;-36
2023/01/21 00:16:27;;;;;;;97.65;34.28;;;0.30;99.90;;;;;;5067699;28;20081;-36
2023/01/21 00:18:55;;;;;;;87.72;32.97;;;-0.70;99.90;;;;;;5067551;28;20040;-36
2023/01/21 00:21:21;;;;;;;83.38;33.50;;;-0.70;99.90;;;;;;5067942;28;20043;-36
2023/01/21 00:23:46;;;;;;;78.10;30.25;;;-0.70;99.90;;;;;;5067625;28;20036;-36
2023/01/21 00:26:13;;;;;;;83.88;33.05;;;-0.70;99.90;;;;;;5067770;28;20421;-36
2023/01/21 00:28:40;;;;;;;81.47;30.75;;;-0.70;99.90;;;;;;5067143;28;20045;-36
2023/01/21 00:31:07;;;;;;;85.70;30.05;;;-0.60;99.90;;;;;;5067363;28;20048;-36
2023/01/21 00:33:34;;;;;;;88.03;30.33;;;-0.70;99.90;;;;;;5067184;28;20051;-36
2023/01/21 00:36:02;;;;;;;83.05;30.40;;;-0.70;99.90;;;;;;5066412;28;20040;-36
2023/01/21 00:38:29;;;;;;;80.07;30.88;;;-0.70;99.90;;;;;;5067652;28;20036;-36
2023/01/21 00:41:03;;;;;;;88.45;33.33;;;-0.70;99.90;;;;;;5067238;28;20049;-36
2023/01/21 00:43:29;;;;;;;90.20;32.50;;;-0.80;99.90;;;;;;5067529;28;20119;-36
2023/01/21 00:45:54;;;;;;;80.25;31.63;;;-0.70;99.90;;;;;;5067196;28;20156;-36
2023/01/21 00:48:20;;;;;;;75.45;28.98;;;-0.80;99.90;;;;;;5067353;28;20051;-36
2023/01/21 00:50:46;;;;;;;79.45;28.25;;;-0.80;99.90;;;;;;5067025;28;20460;-36
2023/01/21 00:53:11;;;;;;;78.60;29.65;;;-0.70;99.90;;;;;;5066462;28;20048;-36
2023/01/21 00:55:37;;;;;;;74.80;29.90;;;-0.90;99.90;;;;;;5066867;28;20088;-36
2023/01/21 00:58:02;;;;;;;71.80;29.20;;;-0.80;99.90;;;;;;5066390;28;20036;-36
2023/01/21 01:00:28;;;;;;;68.43;27.17;;;-0.80;99.90;;;;;;5066802;28;20700;-36
2023/01/21 01:02:54;;;;;;;68.35;26.67;;;-0.70;99.90;;;;;;5066704;28;20463;-36
2023/01/21 01:05:21;;;;;;;69.28;26.17;;;-0.70;99.90;;;;;;5066635;28;20681;-36
2023/01/21 01:07:49;;;;;;;72.60;27.65;;;-0.70;99.90;;;;;;5066319;28;20144;-36
2023/01/21 01:10:15;;;;;;;74.97;28.38;;;-0.70;99.90;;;;;;5066560;28;20040;-36
2023/01/21 01:12:41;;;;;;;71.85;26.30;;;-0.80;99.90;;;;;;5066650;28;20040;-36
2023/01/21 01:15:07;;;;;;;75.10;28.60;;;-0.70;99.90;;;;;;5048296;28;20055;-36
2023/01/21 01:17:33;;;;;;;76.80;28.73;;;-0.80;99.90;;;;;;5065925;28;20037;-36
2023/01/21 01:19:59;;;;;;;74.18;27.05;;;-0.60;99.90;;;;;;5066307;28;20040;-36
2023/01/21 01:22:24;;;;;;;85.18;29.25;;;-0.70;99.90;;;;;;5066173;28;20748;-36
2023/01/21 01:24:50;;;;;;;79.78;29.38;;;-0.70;99.90;;;;;;5066282;28;20406;-36
2023/01/21 01:27:15;;;;;;;83.93;29.27;;;-0.60;99.90;;;;;;5065987;28;20053;-36
2023/01/21 01:29:41;;;;;;;83.53;29.20;;;-0.70;99.90;;;;;;5066278;28;20146;-36
2023/01/21 01:32:07;;;;;;;81.65;29.33;;;-0.70;99.90;;;;;;5066454;28;20068;-37
2023/01/21 01:34:32;;;;;;;79.45;29.08;;;-0.60;99.90;;;;;;5065917;28;20558;-36
2023/01/21 01:36:58;;;;;;;87.10;28.15;;;-0.70;99.90;;;;;;5066360;28;20497;-36
2023/01/21 01:39:24;;;;;;;82.72;27.00;;;-0.70;99.90;;;;;;5067011;28;20134;-36
2023/01/21 01:41:49;;;;;;;77.53;26.40;;;-0.40;99.90;;;;;;5066793;28;20492;-36
2023/01/21 01:44:52;;;;;;;87.60;30.23;;;-0.70;99.90;;;;;;5066349;28;20490;-36
2023/01/21 01:47:19;;;;;;;;;;;-0.90;99.90;;;;;;5066289;28;20044;-36
2023/01/21 01:49:45;;;;;;;80.75;26.80;;;-0.80;99.90;;;;;;5065349;28;20676;-36
2023/01/21 01:52:13;;;;;;;80.82;26.90;;;-0.50;99.90;;;;;;5066008;28;20052;-36
2023/01/21 01:54:43;;;;;;;83.70;30.10;;;-0.70;99.90;;;;;;5066115;28;20052;-36
2023/01/21 01:57:11;;;;;;;101.90;30.27;;;-0.80;99.90;;;;;;5066516;28;20085;-36
2023/01/21 01:59:39;;;;;;;93.35;28.73;;;-1.00;99.90;;;;;;5066392;28;20036;-36
2023/01/21 02:02:08;;;;;;;101.88;33.03;;;-0.70;99.90;;;;;;5066303;28;20374;-36
2023/01/21 02:04:41;;;;;;;94.95;30.77;;;-0.80;99.90;;;;;;5066640;28;20067;-36
2023/01/21 02:07:07;;;;;;;117.30;30.60;;;-0.80;99.90;;;;;;5066515;28;20136;-36
2023/01/21 02:09:32;;;;;;;116.07;31.40;;;-0.80;99.90;;;;;;5066224;28;20123;-36
2023/01/21 02:12:01;;;;;;;129.88;30.83;;;-0.70;99.90;;;;;;5066565;28;20393;-36
2023/01/21 02:14:28;;;;;;;116.05;27.88;;;-0.70;99.90;;;;;;5066222;28;20044;-36
2023/01/21 02:17:20;;;;;;;129.48;27.85;;;-0.70;99.90;;;;;;5065889;28;20056;-37
2023/01/21 02:20:08;;;;;;;164.85;29.95;;;-0.60;99.90;;;;;;5065817;28;20037;-36
2023/01/21 02:23:04;;;;;;;131.68;30.27;;;-0.90;99.90;;;;;;5066102;28;20071;-37
2023/01/21 02:26:07;;;;;;;115.45;28.00;;;-0.90;99.90;;;;;;5065591;28;20092;-36
2023/01/21 02:28:54;;;;;;;143.27;31.38;;;-0.70;99.90;;;;;;5066023;28;20055;-36
2023/01/21 02:31:39;;;;;;;118.40;30.88;;;-0.70;99.90;;;;;;5065230;28;20091;-36
2023/01/21 02:34:37;;;;;;;104.75;27.75;;;-0.80;99.90;;;;;;5065015;28;20049;-36
2023/01/21 02:37:16;;;;;;;104.40;29.20;;;-0.80;99.90;;;;;;5065506;28;20393;-37
2023/01/21 02:40:07;;;;;;;91.85;27.00;;;-0.60;99.90;;;;;;5065777;28;20044;-37
2023/01/21 02:42:46;;;;;;;78.93;25.60;;;-0.70;99.90;;;;;;5065602;28;20042;-36
2023/01/21 02:45:30;;;;;;;110.32;28.40;;;-0.80;99.90;;;;;;5065758;28;20040;-36
2023/01/21 02:48:09;;;;;;;88.13;27.10;;;-0.80;99.90;;;;;;5066000;28;20174;-37
2023/01/21 02:50:40;;;;;;;117.43;28.50;;;-0.70;99.90;;;;;;5065800;28;20502;-37
2023/01/21 02:53:06;;;;;;;115.97;28.90;;;-0.60;99.90;;;;;;5065966;28;20051;-36
2023/01/21 02:55:35;;;;;;;87.13;27.13;;;-0.60;99.90;;;;;;5065356;28;20033;-36
2023/01/21 02:58:13;;;;;;;96.20;28.45;;;-0.50;99.90;;;;;;5065476;28;20110;-36
2023/01/21 03:01:12;;;;;;;78.82;26.27;;;-0.50;99.90;;;;;;5067900;28;20044;-37
2023/01/21 03:04:12;;;;;;;99.60;25.70;;;-0.70;99.90;;;;;;5069284;28;20059;-36
2023/01/21 03:07:01;;;;;;;92.13;26.20;;;-0.60;99.90;;;;;;5069690;28;20040;-36
2023/01/21 03:09:32;;;;;;;111.90;28.40;;;-0.60;99.90;;;;;;5069176;28;20092;-37
2023/01/21 03:12:48;;;;;;;87.30;26.00;;;-0.20;99.90;;;;;;5069262;28;20107;-36
2023/01/21 03:18:25;;;;;;;83.47;26.20;;;-0.30;99.90;;;;;;5068323;28;20071;-36
2023/01/21 03:21:04;;;;;;;84.20;25.27;;;-0.50;99.90;;;;;;5068408;28;20102;-37
2023/01/21 03:23:37;;;;;;;88.15;24.80;;;-0.50;99.90;;;;;;5068229;28;20124;-37
2023/01/21 03:26:06;;;;;;;77.70;24.38;;;-0.50;99.90;;;;;;5068441;28;20547;-37
2023/01/21 03:28:34;;;;;;;81.25;26.40;;;-0.50;99.90;;;;;;5068717;28;20052;-37
2023/01/21 03:31:11;;;;;;;70.75;25.20;;;-0.40;99.90;;;;;;5068738;28;20044;-37
2023/01/21 03:33:41;;;;;;;83.80;24.45;;;-0.50;99.90;;;;;;5068239;28;20048;-37
2023/01/21 03:36:48;;;;;;;78.50;26.10;;;-0.50;99.90;;;;;;5068151;28;20048;-36
2023/01/21 03:39:26;;;;;;;80.47;27.38;;;-0.90;99.90;;;;;;5067572;28;20114;-37
2023/01/21 03:41:51;;;;;;;76.22;26.35;;;-0.80;99.90;;;;;;5068268;28;20051;-36
2023/01/21 03:44:17;;;;;;;82.82;26.00;;;-0.70;99.90;;;;;;5068019;28;20036;-37
2023/01/21 03:46:45;;;;;;;84.38;26.02;;;-0.80;99.90;;;;;;5068859;28;20072;-36
2023/01/21 03:49:29;;;;;;;74.63;24.55;;;-0.90;99.90;;;;;;5068605;28;20044;-37
2023/01/21 03:51:58;;;;;;;84.93;26.88;;;-0.80;99.90;;;;;;5068586;28;20135;-36
2023/01/21 03:54:23;;;;;;;78.00;24.80;;;-0.10;99.90;;;;;;5068139;28;20044;-37
2023/01/21 03:56:49;;;;;;;85.70;28.15;;;-0.90;99.90;;;;;;5068824;28;20047;-36
2023/01/21 03:59:15;;;;;;;83.70;26.27;;;-0.80;99.90;;;;;;5068896;28;20041;-37
2023/01/21 04:01:40;;;;;;;78.38;25.98;;;-0.80;99.90;;;;;;5068069;28;20120;-37
2023/01/21 04:04:07;;;;;;;75.28;24.80;;;-0.90;99.90;;;;;;5068087;28;20082;-36
2023/01/21 04:06:35;;;;;;;80.50;24.75;;;-0.90;99.90;;;;;;5068220;28;20556;-36
2023/01/21 04:09:02;;;;;;;92.82;28.67;;;-1.00;99.90;;;;;;5068884;28;20075;-36
2023/01/21 04:11:28;;;;;;;81.13;25.70;;;-1.10;99.90;;;;;;5067382;28;20122;-36
2023/01/21 04:13:53;;;;;;;93.30;26.67;;;-1.20;99.90;;;;;;5068364;28;20040;-36
2023/01/21 04:16:20;;;;;;;93.00;26.38;;;-1.20;99.90;;;;;;5068181;28;20474;-36
2023/01/21 04:18:46;;;;;;;81.78;25.30;;;-1.40;99.90;;;;;;5067945;28;20032;-36
2023/01/21 04:21:12;;;;;;;76.63;24.77;;;-1.50;99.90;;;;;;5068218;28;20036;-36
2023/01/21 04:23:38;;;;;;;78.70;25.33;;;-1.50;99.90;;;;;;5049526;28;20532;-36
2023/01/21 04:26:03;;;;;;;74.35;25.50;;;-1.50;99.90;;;;;;5067506;28;20103;-36
2023/01/21 04:28:29;;;;;;;85.55;26.42;;;-1.20;99.90;;;;;;5068397;28;20105;-36
2023/01/21 04:30:55;;;;;;;95.97;28.23;;;-1.40;99.90;;;;;;5068193;28;20776;-36
2023/01/21 04:33:21;;;;;;;82.97;25.90;;;-1.30;99.90;;;;;;5068209;28;20052;-36
2023/01/21 04:35:46;;;;;;;87.63;28.85;;;-1.30;99.90;;;;;;5067511;28;20482;-36
2023/01/21 04:38:13;;;;;;;90.70;28.38;;;-1.00;99.90;;;;;;5068405;28;20044;-37
2023/01/21 04:40:38;;;;;;;88.18;26.90;;;-1.20;99.90;;;;;;5067598;28;20126;-36
2023/01/21 04:43:04;;;;;;;99.25;28.45;;;-1.10;99.90;;;;;;5067350;28;20052;-36
2023/01/21 04:45:30;;;;;;;96.05;27.70;;;-1.00;99.90;;;;;;5066955;28;20627;-36
2023/01/21 04:47:55;;;;;;;76.55;26.30;;;-1.00;99.90;;;;;;5067721;28;20040;-36
2023/01/21 04:50:21;;;;;;;85.07;26.80;;;-0.90;99.90;;;;;;5067147;28;20113;-36
2023/01/21 04:52:46;;;;;;;81.75;26.42;;;-1.00;99.90;;;;;;5067189;28;20033;-36
2023/01/21 04:55:12;;;;;;;80.32;26.90;;;-0.90;99.90;;;;;;5067285;28;20135;-37
2023/01/21 04:57:38;;;;;;;88.22;27.83;;;-0.80;99.90;;;;;;5067071;28;20167;-37
2023/01/21 05:00:05;;;;;;;93.20;28.23;;;-0.80;99.90;;;;;;5067024;28;20389;-36
2023/01/21 05:02:32;;;;;;;88.82;26.85;;;-0.90;99.90;;;;;;5066706;28;20040;-37
2023/01/21 05:04:58;;;;;;;92.55;27.80;;;-0.70;99.90;;;;;;5067003;28;20060;-36
2023/01/21 05:07:24;;;;;;;85.57;25.23;;;-0.70;99.90;;;;;;5066897;28;20045;-36
2023/01/21 05:09:50;;;;;;;85.72;26.48;;;-0.70;99.90;;;;;;5066913;28;20121;-37
2023/01/21 05:12:15;;;;;;;80.07;25.75;;;-0.60;99.90;;;;;;5067097;28;20040;-37
2023/01/21 05:14:41;;;;;;;91.47;28.55;;;-0.60;99.90;;;;;;5066711;28;20033;-37
2023/01/21 05:17:07;;;;;;;92.75;27.35;;;-0.60;99.90;;;;;;5048791;28;20125;-36
2023/01/21 05:19:32;;;;;;;90.95;26.13;;;-0.70;99.90;;;;;;5066682;28;20037;-36
2023/01/21 05:21:58;;;;;;;85.22;27.17;;;-0.30;99.90;;;;;;5048761;28;20436;-37
2023/01/21 05:24:24;;;;;;;84.18;25.10;;;-0.50;99.90;;;;;;5066675;28;20067;-36
2023/01/21 05:26:49;;;;;;;74.93;24.40;;;-0.50;99.90;;;;;;5066395;28;20052;-37
2023/01/21 05:29:15;;;;;;;83.30;25.83;;;-0.40;99.90;;;;;;5066892;28;20045;-36
2023/01/21 05:31:42;;;;;;;82.95;27.00;;;-0.60;99.90;;;;;;5066427;28;20036;-37
2023/01/21 05:34:09;;;;;;;86.88;25.33;;;-0.50;99.90;;;;;;5065992;28;20127;-36
2023/01/21 05:36:34;;;;;;;76.05;26.27;;;-0.50;99.90;;;;;;5066038;28;20101;-36
2023/01/21 05:39:00;;;;;;;82.15;23.90;;;-0.50;99.90;;;;;;5066051;28;20040;-37
2023/01/21 05:41:26;;;;;;;81.65;26.88;;;-0.50;99.90;;;;;;5066498;28;20105;-36
2023/01/21 05:43:52;;;;;;;76.88;25.48;;;-0.10;99.90;;;;;;5066551;28;20533;-37
2023/01/21 05:46:18;;;;;;;77.03;26.13;;;-0.40;99.90;;;;;;5066914;28;20040;-37
2023/01/21 05:48:43;;;;;;;84.93;26.58;;;-0.40;99.90;;;;;;5066745;28;20083;-37
2023/01/21 05:51:09;;;;;;;85.82;27.05;;;-0.40;99.90;;;;;;5066570;28;20119;-36
2023/01/21 05:53:35;;;;;;;73.97;26.58;;;-0.40;99.90;;;;;;5066740;28;20043;-37
2023/01/21 05:56:00;;;;;;;76.65;25.00;;;-0.40;99.90;;;;;;5066202;28;20075;-37
2023/01/21 05:58:26;;;;;;;81.35;26.40;;;-0.40;99.90;;;;;;5066432;28;20044;-36
2023/01/21 06:00:52;;;;;;;75.00;24.60;;;-0.30;99.90;;;;;;5066128;28;20565;-37
2023/01/21 06:03:18;;;;;;;87.85;25.70;;;-0.40;99.90;;;;;;5066232;28;20047;-37
2023/01/21 06:05:45;;;;;;;78.18;25.33;;;-0.40;99.90;;;;;;5065841;28;20124;-36
2023/01/21 06:08:12;;;;;;;79.18;24.73;;;-0.40;99.90;;;;;;5066216;28;20055;-36
2023/01/21 06:10:38;;;;;;;82.53;24.73;;;-0.40;99.90;;;;;;5066169;28;20032;-36
2023/01/21 06:13:03;;;;;;;75.85;22.83;;;-0.40;99.90;;;;;;5066424;28;20040;-37
2023/01/21 06:15:32;;;;;;;78.95;25.17;;;-0.40;99.90;;;;;;5066162;28;20458;-37
2023/01/21 06:18:01;;;;;;;77.88;23.75;;;-0.40;99.90;;;;;;5065837;28;20040;-36
2023/01/21 06:20:29;;;;;;;84.13;25.70;;;-0.40;99.90;;;;;;5065831;28;20063;-36
2023/01/21 06:22:55;;;;;;;70.65;21.85;;;-0.40;99.90;;;;;;5065958;28;20047;-36
2023/01/21 06:25:21;;;;;;;78.40;23.60;;;-0.50;99.90;;;;;;5047486;28;20131;-36
2023/01/21 06:27:47;;;;;;;74.38;23.98;;;-0.30;99.90;;;;;;5065280;28;20099;-36
2023/01/21 06:30:13;;;;;;;69.80;23.17;;;-0.40;99.90;;;;;;5065976;28;20096;-37
2023/01/21 06:32:39;;;;;;;64.43;22.55;;;-0.50;99.90;;;;;;5066440;28;20044;-36
2023/01/21 06:35:05;;;;;;;90.10;25.60;;;-0.60;99.90;;;;;;5067341;28;20040;-37
2023/01/21 06:37:30;;;;;;;85.25;26.20;;;-0.50;99.90;;;;;;5069998;28;20128;-36
2023/01/21 06:39:56;;;;;;;77.65;25.45;;;-0.40;99.90;;;;;;5070009;28;20135;-36
2023/01/21 06:42:22;;;;;;;89.47;26.90;;;-0.50;99.90;;;;;;5070037;28;20076;-36
2023/01/21 06:44:47;;;;;;;86.95;26.67;;;-0.10;99.90;;;;;;5070243;28;20048;-37
2023/01/21 06:47:13;;;;;;;99.60;27.33;;;-0.40;99.90;;;;;;5070297;28;20391;-36
2023/01/21 06:49:39;;;;;;;94.78;27.50;;;-0.10;99.90;;;;;;5070368;28;20052;-37
2023/01/21 06:52:05;;;;;;;109.00;28.92;;;-0.30;99.90;;;;;;5070134;28;20048;-37
2023/01/21 06:54:31;;;;;;;110.72;29.13;;;-0.40;99.90;;;;;;5070327;28;20040;-37
2023/01/21 06:56:57;;;;;;;111.03;29.13;;;-0.40;99.90;;;;;;5070021;28;20089;-37
2023/01/21 06:59:22;;;;;;;93.78;29.27;;;-0.40;99.90;;;;;;5069940;28;20607;-36
2023/01/21 07:01:48;;;;;;;96.63;29.13;;;-0.50;99.90;;;;;;5069666;28;20048;-36
2023/01/21 07:04:14;;;;;;;100.60;29.23;;;-0.40;99.90;;;;;;5069400;28;20052;-36
2023/01/21 07:06:40;;;;;;;88.53;30.42;;;-0.40;99.90;;;;;;5069806;28;20087;-37
2023/01/21 07:09:06;;;;;;;101.32;29.48;;;-0.50;99.90;;;;;;5069589;28;20127;-37
2023/01/21 07:11:33;;;;;;;99.88;30.00;;;-0.40;99.90;;;;;;5069410;28;20162;-37
2023/01/21 07:13:58;;;;;;;98.93;28.98;;;-0.40;99.90;;;;;;5069171;28;20036;-37
2023/01/21 07:16:24;;;;;;;96.85;29.20;;;-0.40;99.90;;;;;;5069338;28;20663;-37
2023/01/21 07:18:50;;;;;;;113.57;28.85;;;-0.10;99.90;;;;;;5069134;28;20044;-37
2023/01/21 07:21:16;;;;;;;103.88;29.80;;;-0.40;99.90;;;;;;5050444;28;20048;-36
2023/01/21 07:23:42;;;;;;;105.22;29.90;;;-0.40;99.90;;;;;;5068998;28;20074;-37
2023/01/21 07:26:08;;;;;;;108.72;30.73;;;-0.50;99.90;;;;;;5068034;28;20518;-37
2023/01/21 07:28:34;;;;;;;93.90;28.92;;;-0.50;99.90;;;;;;5068359;28;20136;-37
2023/01/21 07:31:01;;;;;;;105.15;30.00;;;-0.50;99.90;;;;;;5068324;28;20407;-37
2023/01/21 07:33:27;;;;;;;96.90;28.88;;;-0.50;99.90;;;;;;5068551;28;20379;-36
2023/01/21 07:35:53;;;;;;;100.82;30.63;;;-0.50;99.90;;;;;;5068258;28;20044;-37
2023/01/21 07:38:19;;;;;;;97.40;31.23;;;-0.50;99.90;;;;;;5068857;28;20143;-37
2023/01/21 07:40:48;;;;;;;94.57;28.40;;;-0.40;99.90;;;;;;5068510;28;20871;-37
2023/01/21 07:43:14;;;;;;;92.20;28.05;;;-0.40;99.90;;;;;;5068091;28;20040;-37
2023/01/21 07:45:40;;;;;;;101.00;28.40;;;-0.40;99.90;;;;;;5067840;28;20624;-37
2023/01/21 07:48:06;;;;;;;94.68;29.70;;;-0.40;99.90;;;;;;5067807;28;20040;-37
2023/01/21 07:50:32;;;;;;;89.10;27.90;;;-0.30;99.90;;;;;;5068472;28;20048;-37
2023/01/21 07:53:00;;;;;;;103.15;29.80;;;-0.30;99.90;;;;;;5068168;28;20044;-37
2023/01/21 07:55:27;;;;;;;96.82;29.02;;;-0.40;99.90;;;;;;5068835;28;20044;-37
2023/01/21 07:57:55;;;;;;;91.97;29.38;;;-0.30;99.90;;;;;;5068279;28;20041;-36
2023/01/21 08:00:22;;;;;;;79.22;27.40;;;-0.10;99.90;;;;;;5068839;28;20378;-37
2023/01/21 08:02:55;;;;;;;86.97;27.85;;;-0.40;99.90;;;;;;5068847;28;20051;-36
2023/01/21 08:05:21;;;;;;;;;;;0.10;99.90;;;;;;5069242;28;20502;-36
2023/01/21 08:07:46;;;;;;;86.57;26.83;;;-0.30;99.90;;;;;;5068769;28;19967;-36
2023/01/21 08:10:14;;;;;;;85.38;26.88;;;-0.20;99.90;;;;;;5068666;28;20072;-37
2023/01/21 08:12:43;;;;;;;86.68;28.55;;;-0.10;99.90;;;;;;5068791;28;20037;-36
2023/01/21 08:15:09;;;;;;;93.28;27.45;;;-0.30;99.90;;;;;;5068485;28;20056;-36
2023/01/21 08:17:39;;;;;;;87.85;29.50;;;-0.40;99.90;;;;;;5068003;28;20042;-36
2023/01/21 08:20:06;;;;;;;82.63;27.42;;;-0.30;99.90;;;;;;5067631;28;20470;-37
2023/01/21 08:22:32;;;;;;;79.93;27.85;;;-0.40;99.90;;;;;;5067880;28;20123;-37
2023/01/21 08:24:57;;;;;;;77.50;28.52;;;-0.20;99.90;;;;;;5067733;28;20140;-36
2023/01/21 08:27:23;;;;;;;72.00;26.60;;;-0.20;99.90;;;;;;5067225;28;20675;-36
2023/01/21 08:29:49;;;;;;;81.53;27.70;;;-0.30;99.90;;;;;;5067184;28;20098;-36
2023/01/21 08:32:15;;;;;;;90.05;27.13;;;-0.20;99.90;;;;;;5067460;28;20040;-36
2023/01/21 08:34:40;;;;;;;90.70;28.70;;;-0.20;99.90;;;;;;5066955;28;20049;-37
2023/01/21 08:37:06;;;;;;;82.03;27.20;;;-0.20;99.90;;;;;;5067295;28;20032;-36
2023/01/21 08:39:32;;;;;;;94.88;28.10;;;-0.30;99.90;;;;;;5067532;28;20084;-37
2023/01/21 08:41:57;;;;;;;76.72;25.67;;;-0.20;99.90;;;;;;5067498;28;20123;-36
2023/01/21 08:44:23;;;;;;;77.45;26.73;;;-0.10;99.90;;;;;;5067722;28;20110;-37
2023/01/21 08:46:49;;;;;;;92.10;30.05;;;-0.20;99.90;;;;;;5067516;28;20082;-36
2023/01/21 08:49:15;;;;;;;75.07;26.17;;;-0.10;99.90;;;;;;5067584;28;20040;-37
2023/01/21 08:51:40;;;;;;;75.60;26.95;;;0.00;99.90;;;;;;5067530;28;20051;-37
2023/01/21 08:54:07;;;;;;;79.03;27.85;;;0.00;99.90;;;;;;5067214;28;20056;-36
2023/01/21 08:56:33;;;;;;;78.03;26.02;;;0.00;99.90;;;;;;5067529;28;20040;-36
2023/01/21 08:58:59;;;;;;;82.22;28.48;;;0.10;99.90;;;;;;5066504;28;20037;-37
2023/01/21 09:01:25;;;;;;;81.97;26.92;;;0.10;99.90;;;;;;5066659;28;20041;-36
2023/01/21 09:04:00;;;;;;;85.97;28.45;;;0.00;99.90;;;;;;5066821;28;20102;-36
2023/01/21 09:06:28;;;;;;;77.57;25.83;;;0.00;99.90;;;;;;5066872;28;20394;-37
2023/01/21 09:08:54;;;;;;;75.82;26.02;;;0.10;99.90;;;;;;5067053;28;20059;-36
2023/01/21 09:11:21;;;;;;;79.30;28.45;;;-0.10;99.90;;;;;;5067492;28;20079;-37
2023/01/21 09:13:47;;;;;;;83.05;28.48;;;0.00;99.90;;;;;;5065506;28;20052;-37
2023/01/21 09:16:19;;;;;;;83.10;28.70;;;0.00;99.90;;;;;;5066933;28;20044;-36
2023/01/21 09:18:46;;;;;;;75.03;27.05;;;0.10;99.90;;;;;;5066953;28;20048;-37
2023/01/21 09:21:12;;;;;;;90.18;27.60;;;0.10;99.90;;;;;;5066527;28;20049;-37
2023/01/21 09:23:39;;;;;;;80.85;28.90;;;0.10;99.90;;;;;;5067005;28;20133;-37
2023/01/21 09:26:07;;;;;;;83.97;27.50;;;0.20;99.90;;;;;;5067022;28;20063;-37
2023/01/21 09:28:37;;;;;;;77.10;28.90;;;0.10;99.90;;;;;;5066394;28;20052;-37
2023/01/21 09:31:09;;;;;;;83.75;28.38;;;0.10;99.90;;;;;;5067144;28;20040;-36
2023/01/21 09:33:36;;;;;;;82.82;31.60;;;0.40;99.90;;;;;;5066815;28;20054;-36
2023/01/21 09:36:05;;;;;;;89.65;34.10;;;0.40;99.90;;;;;;5066790;28;20086;-37
2023/01/21 09:38:30;;;;;;;78.28;33.05;;;0.30;99.90;;;;;;5066927;28;20040;-37
2023/01/21 09:41:21;;;;;;;81.82;32.33;;;0.40;99.90;;;;;;5067066;28;20738;-37
2023/01/21 09:43:57;;;;;;;74.75;29.98;;;0.40;99.90;;;;;;5066090;28;20476;-37
2023/01/21 09:46:32;;;;;;;69.15;29.77;;;0.50;99.90;;;;;;5066495;28;20067;-36
2023/01/21 09:49:00;;;;;;;70.90;28.95;;;0.60;99.90;;;;;;5066923;28;20036;-37
2023/01/21 09:51:38;;;;;;;70.93;29.15;;;0.70;99.90;;;;;;5066492;28;20078;-37
2023/01/21 09:54:10;;;;;;;64.15;28.80;;;0.50;99.90;;;;;;5066267;28;20044;-37
2023/01/21 09:56:49;;;;;;;62.95;28.65;;;0.60;99.90;;;;;;5066200;28;20051;-36
2023/01/21 09:59:22;;;;;;;68.35;28.95;;;0.70;99.90;;;;;;5065701;28;20482;-37
2023/01/21 10:01:50;;;;;;;69.75;28.30;;;0.70;99.90;;;;;;5066414;28;20045;-36
2023/01/21 10:04:38;;;;;;;63.33;28.17;;;0.80;99.90;;;;;;5066373;28;20144;-37
2023/01/21 10:07:17;;;;;;;66.75;28.73;;;0.80;99.90;;;;;;5066282;28;20048;-37
2023/01/21 10:09:50;;;;;;;59.58;28.10;;;0.80;99.90;;;;;;5065379;28;20045;-37
2023/01/21 10:12:35;;;;;;;61.65;28.75;;;0.80;99.90;;;;;;5066094;28;20086;-37
2023/01/21 10:15:13;;;;;;;62.65;28.48;;;0.80;99.90;;;;;;5065787;28;20044;-37
2023/01/21 10:17:50;;;;;;;61.80;28.10;;;1.20;99.90;;;;;;5065532;28;20567;-37
2023/01/21 10:20:28;;;;;;;62.45;28.17;;;0.80;99.90;;;;;;5066122;28;20041;-37
2023/01/21 10:23:19;;;;;;;57.88;29.25;;;0.80;99.90;;;;;;5066173;28;20051;-36
2023/01/21 10:25:48;;;;;;;60.40;28.10;;;1.00;99.90;;;;;;5065970;28;20659;-37
2023/01/21 10:28:27;;;;;;;56.78;26.70;;;1.00;99.90;;;;;;5065417;28;20449;-36
2023/01/21 10:30:55;;;;;;;57.00;28.48;;;1.10;99.90;;;;;;5065543;28;20037;-37
2023/01/21 10:33:27;;;;;;;53.50;27.63;;;1.10;99.90;;;;;;5065505;28;20072;-37
2023/01/21 10:36:18;;;;;;;60.03;28.65;;;1.10;99.90;;;;;;5065675;28;20375;-37
2023/01/21 10:39:14;;;;;;;60.53;30.42;;;1.00;99.90;;;;;;5065708;28;20060;-37
2023/01/21 10:41:59;;;;;;;57.42;27.02;;;0.90;99.90;;;;;;5066043;28;20037;-37
2023/01/21 10:44:44;;;;;;;56.03;26.73;;;0.80;99.90;;;;;;5065642;28;20055;-37
2023/01/21 10:47:37;;;;;;;59.50;27.92;;;0.70;99.90;;;;;;5066139;28;20044;-36
2023/01/21 10:50:22;;;;;;;55.65;28.40;;;0.60;99.90;;;;;;5066007;28;20079;-37
2023/01/21 10:53:06;;;;;;;60.42;29.67;;;0.70;99.90;;;;;;5066040;28;20048;-37
2023/01/21 10:55:39;;;;;;;63.55;28.42;;;0.60;99.90;;;;;;5064937;28;20055;-36
2023/01/21 10:58:34;;;;;;;57.58;27.98;;;0.70;99.90;;;;;;5064366;28;20049;-41
2023/01/21 11:01:03;;;;;;;64.95;29.77;;;0.80;99.90;;;;;;5060675;28;20050;-40
2023/01/21 11:03:44;;;;;;;62.08;29.23;;;0.90;99.90;;;;;;5064716;28;20040;-40
2023/01/21 11:06:15;;;;;;;61.45;29.35;;;1.10;99.90;;;;;;5050359;28;20067;-46
2023/01/21 11:08:44;;;;;;;65.07;30.17;;;1.50;99.90;;;;;;5018993;28;20096;-47
2023/01/21 11:11:11;;;;;;;55.35;29.20;;;1.90;99.90;;;;;;5024349;28;20480;-44
2023/01/21 11:13:37;;;;;;;59.33;28.45;;;1.20;99.90;;;;;;5043090;28;20049;-45
2023/01/21 11:16:03;;;;;;;58.72;28.42;;;1.80;99.90;;;;;;5043326;28;20048;-51
2023/01/21 11:18:31;;;;;;;56.28;28.05;;;1.30;99.90;;;;;;5042566;28;20045;-48
2023/01/21 11:21:00;;;;;;;62.13;30.08;;;1.30;99.90;;;;;;5045147;28;20061;-49
2023/01/21 11:23:29;;;;;;;59.08;30.27;;;1.40;99.90;;;;;;5047187;28;20519;-47
2023/01/21 11:26:19;;;;;;;53.03;28.67;;;1.80;99.90;;;;;;5047251;28;20033;-47
2023/01/21 11:28:45;;;;;;;57.17;28.10;;;1.90;99.90;;;;;;5047103;28;20053;-54
2023/01/21 11:31:14;;;;;;;58.50;29.17;;;1.90;99.90;;;;;;5047436;28;20041;-53
2023/01/21 11:33:41;;;;;;;54.88;26.73;;;1.90;99.90;;;;;;5047425;28;20041;-48
2023/01/21 11:36:18;;;;;;;48.53;25.73;;;2.10;99.90;;;;;;5047551;28;20045;-53
2023/01/21 11:38:47;;;;;;;46.25;25.73;;;2.00;99.90;;;;;;5047250;28;20040;-52
2023/01/21 11:41:20;;;;;;;44.75;24.90;;;2.10;99.90;;;;;;5047861;28;20045;-47
2023/01/21 11:43:51;;;;;;;43.50;24.48;;;2.00;99.90;;;;;;5046947;28;20055;-56
2023/01/21 11:46:21;;;;;;;43.97;23.90;;;2.00;99.90;;;;;;5047415;28;20455;-47
2023/01/21 11:48:47;;;;;;;41.65;23.67;;;2.00;99.90;;;;;;5029504;28;20037;-49
2023/01/21 11:51:13;;;;;;;47.50;25.58;;;2.10;99.90;;;;;;5029290;28;20048;-50
2023/01/21 11:53:40;;;;;;;40.55;23.58;;;2.40;99.90;;;;;;5028668;28;20052;-52
2023/01/21 11:56:06;;;;;;;40.63;24.02;;;2.40;99.90;;;;;;5046454;28;20076;-52
2023/01/21 11:58:35;;;;;;;39.38;22.60;;;2.30;99.90;;;;;;5046415;28;20147;-48
2023/01/21 12:01:20;;;;;;;37.33;22.08;;;2.60;99.90;;;;;;5046686;28;20056;-49
2023/01/21 12:03:52;;;;;;;33.88;19.95;;;2.40;99.90;;;;;;5047039;28;20140;-44
2023/01/21 12:06:30;;;;;;;34.75;19.92;;;2.40;99.90;;;;;;5027132;28;20074;-47
2023/01/21 12:09:02;;;;;;;33.35;19.55;;;2.30;99.90;;;;;;5046341;28;20051;-52
2023/01/21 12:11:29;;;;;;;32.05;19.55;;;2.30;99.90;;;;;;5028499;28;20574;-50
2023/01/21 12:14:10;;;;;;;34.80;18.65;;;2.40;99.90;;;;;;5047558;28;20055;-49
2023/01/21 12:17:14;;;;;;;32.58;19.30;;;2.30;99.90;;;;;;5048071;28;20044;-56
2023/01/21 12:20:10;;;;;;;31.40;18.38;;;2.40;99.90;;;;;;5044545;28;20049;-51
2023/01/21 12:22:55;;;;;;;32.08;19.02;;;2.20;99.90;;;;;;5046687;28;20044;-48
2023/01/21 12:25:40;;;;;;;31.67;18.13;;;2.00;99.90;;;;;;5048285;28;20415;-53
2023/01/21 12:28:25;;;;;;;35.47;19.08;;;2.00;99.90;;;;;;5047004;28;20191;-52
2023/01/21 12:31:20;;;;;;;31.48;18.25;;;2.00;99.90;;;;;;5046598;28;20056;-53
2023/01/21 12:33:52;;;;;;;28.60;17.88;;;1.70;99.90;;;;;;5045408;28;20041;-49
2023/01/21 12:36:41;;;;;;;29.73;17.65;;;1.80;99.90;;;;;;5046271;28;20041;-51
2023/01/21 12:39:23;;;;;;;28.85;16.80;;;1.60;99.90;;;;;;5045764;28;20094;-45
2023/01/21 12:42:05;;;;;;;27.38;16.45;;;1.50;99.90;;;;;;5046942;28;20033;-53
2023/01/21 12:45:04;;;;;;;26.67;15.55;;;1.30;99.90;;;;;;5046594;28;20045;-64
2023/01/21 12:47:56;;;;;;;27.80;16.27;;;1.50;99.90;;;;;;5028431;28;20436;-48
2023/01/21 12:50:51;;;;;;;23.13;13.73;;;1.90;99.90;;;;;;5045926;28;20560;-50
2023/01/21 12:53:26;;;;;;;22.05;13.82;;;1.50;99.90;;;;;;5027646;28;20461;-46